Detall de PIREP

Printer-friendly versionPDF version

[2015/03/30 14:26:00]
Flight IATA:CT0001
Pilot Number:031
Company ICAO:CAT
Aircraft Type:AT72/F
PAX:24
Departing Airport: LEVC
Destination Airport: LEBL
Alternate Airport:LEPA
Online: VATSIM
Route:TATOS A34 SAURA R60 MATEX
Flight Level:F180
No Slew and time accel
No pause
Crash detect
Detect pilot in Cockpit between each 30 and 45 minutes
14:26 Zero fuel Weight: 34737 Lbs, Fuel Weight: 4054 Lbs
14:26 VATSIM:LEVC 291300Z 11009KT 070V150 CAVOK 20/10 Q1022 NOSIG
14:26 VATSIM:LEBL 291300Z 18008KT 150V210 CAVOK 17/10 Q1020 NOSIG
14:27 Parking Brakes off
14:33 Take-off
14:33 Take off Weight: 38740 Lbs
14:33 Wind: 000º @ 000 Knots Heading: 116º
14:33 POS N39º 29´ 26´´ W000º 29´ 05´´
14:33 Flaps:1 at 125 Knots
14:34 Gear Up: 153 Knots
14:34 Flaps:0 at 178 Knots
14:40 TOC
14:40 Fuel Weight: 3717 Lb
14:48 Wind:000º@000 Knots Heading: 016º Ground Speed: 285 Knots Altitude 17982 ft
15:03 Wind:000º@000 Knots Heading: 049º Ground Speed: 288 Knots Altitude 17880 ft
15:09 TOD
15:09 Fuel Weight: 2802 Lb
15:18 Wind:000º@000 Knots Heading: 067º Ground Speed: 195 Knots Altitude 7732 ft
15:22 Flaps:1 at 150 Knots
15:24 Gear Down: 135 Knots
15:25 Flaps:2 at 121 Knots
15:27 TouchDown:Rate -237 ft/min Speed: 105 Knots
15:27 VATSIM:LEBL 291400Z 16008KT 9999 FEW050 17/11 Q1019 NOSIG
15:27 Land
15:27 Wind:000º@000 Knots
15:27 Heading: 244º
15:27 Flight Duration: 00:54
15:27 Landing Weight: 37427 Lbs
15:27 POS N41º 17´ 22´´ E002º 05´ 31´´
15:34 Parking brakes on
15:34 Block to Block Duration: 01:07
15:34 Final Fuel: 2643 Lbls
15:34 Spent Fuel: 1410 Lbls
15:34 Flight Length: 218 NM
15:34 TOD Land Length: 54 NM

Exportar CSV

Powered by Drupal - Modified by Danger4k